Time;durP1;ratioP1;P1;durP2;ratioP2;P2;SDS_P1;SDS_P2;PMS_P1;PMS_P2;Temp;Humidity;BMP_temperature;BMP_pressure;BME280_temperature;BME280_humidity;BME280_pressure;Samples;Min_cycle;Max_cycle;Signal;HPM_P1;HPM_P2
2023/03/09 00:00:21;;;;;;;3.42;2.85;;;4.00;99.90;;;;;;4951442;28;20137;-85
2023/03/09 00:02:48;;;;;;;3.67;3.10;;;4.00;99.90;;;;;;4967599;28;20076;-85
2023/03/09 00:05:20;;;;;;;3.88;3.28;;;4.00;99.90;;;;;;4980645;28;20049;-84
2023/03/09 00:07:47;;;;;;;4.28;3.78;;;4.00;99.90;;;;;;4986610;28;20128;-84
2023/03/09 00:10:14;;;;;;;4.00;3.55;;;4.00;99.90;;;;;;4982371;28;20212;-84
2023/03/09 00:12:41;;;;;;;3.53;2.85;;;4.00;99.90;;;;;;4952302;28;20075;-84
2023/03/09 00:15:09;;;;;;;4.07;3.38;;;4.00;99.90;;;;;;4970070;28;20516;-84
2023/03/09 00:17:36;;;;;;;4.07;3.40;;;4.00;99.90;;;;;;4985701;28;20203;-84
2023/03/09 00:20:25;;;;;;;4.68;4.05;;;4.00;99.90;;;;;;4981792;28;20122;-84
2023/03/09 00:22:52;;;;;;;4.53;3.55;;;4.00;99.90;;;;;;5002093;28;20081;-84
2023/03/09 00:25:21;;;;;;;3.70;3.30;;;4.00;99.90;;;;;;4970492;28;20049;-84
2023/03/09 00:27:49;;;;;;;3.88;3.05;;;4.00;99.90;;;;;;4981717;28;20053;-85
2023/03/09 00:30:16;;;;;;;4.03;3.15;;;4.10;99.90;;;;;;4973936;28;20140;-85
2023/03/09 00:32:44;;;;;;;3.40;2.70;;;4.00;99.90;;;;;;4975036;28;20119;-85
2023/03/09 00:35:11;;;;;;;3.53;3.00;;;4.00;99.90;;;;;;4968826;28;20141;-85
2023/03/09 00:37:38;;;;;;;3.22;2.78;;;4.00;99.90;;;;;;4971897;28;20144;-85
2023/03/09 00:40:08;;;;;;;4.07;3.35;;;4.00;99.90;;;;;;4990620;28;20080;-85
2023/03/09 00:42:37;;;;;;;4.43;3.75;;;4.00;99.90;;;;;;4975729;28;20528;-85
2023/03/09 00:45:05;;;;;;;4.00;3.50;;;4.00;99.90;;;;;;4979171;28;20053;-85
2023/03/09 00:47:32;;;;;;;4.75;3.95;;;4.00;99.90;;;;;;4994350;28;20148;-86
2023/03/09 00:49:59;;;;;;;4.22;3.70;;;4.00;99.90;;;;;;4993042;28;20122;-86
2023/03/09 00:52:26;;;;;;;4.55;3.70;;;4.00;99.90;;;;;;4976620;28;20255;-85
2023/03/09 00:54:53;;;;;;;3.90;3.38;;;4.00;99.90;;;;;;4992983;28;20131;-85
2023/03/09 00:57:20;;;;;;;4.43;3.85;;;3.90;99.90;;;;;;4973434;28;20050;-85
2023/03/09 00:59:48;;;;;;;3.58;3.05;;;3.90;99.90;;;;;;4986292;28;20064;-85
2023/03/09 01:02:15;;;;;;;4.78;3.83;;;3.90;99.90;;;;;;4987065;28;20056;-85
2023/03/09 01:04:42;;;;;;;3.80;3.38;;;3.90;99.90;;;;;;4985100;28;20421;-84
2023/03/09 01:07:09;;;;;;;4.32;3.47;;;4.00;99.90;;;;;;4959595;28;20057;-85
2023/03/09 01:09:37;;;;;;;4.43;3.80;;;3.90;99.90;;;;;;5000147;28;20146;-84
2023/03/09 01:12:05;;;;;;;4.57;3.90;;;3.90;99.90;;;;;;4986676;28;20050;-84
2023/03/09 01:14:33;;;;;;;4.53;4.07;;;3.90;99.90;;;;;;4975519;28;20058;-85
2023/03/09 01:16:59;;;;;;;4.63;4.13;;;3.90;99.90;;;;;;4994224;28;20057;-84
2023/03/09 01:19:26;;;;;;;4.80;4.25;;;4.00;99.90;;;;;;4972383;28;20140;-84
2023/03/09 01:21:53;;;;;;;4.60;3.72;;;4.00;99.90;;;;;;4989835;28;20394;-84
2023/03/09 01:24:20;;;;;;;3.97;3.35;;;3.90;99.90;;;;;;4973185;28;20447;-84
2023/03/09 01:26:47;;;;;;;3.85;3.45;;;4.00;99.90;;;;;;4989454;28;20058;-84
2023/03/09 01:29:14;;;;;;;4.63;3.63;;;3.90;99.90;;;;;;4989379;28;20148;-84
2023/03/09 01:31:41;;;;;;;3.60;3.10;;;4.00;99.90;;;;;;4989083;28;20053;-84
2023/03/09 01:34:11;;;;;;;4.78;3.92;;;4.00;99.90;;;;;;4986169;28;20120;-84
2023/03/09 01:36:39;;;;;;;5.32;4.22;;;4.00;99.90;;;;;;4988348;28;20061;-84
2023/03/09 01:39:06;;;;;;;4.47;3.55;;;4.00;99.90;;;;;;4988566;28;20114;-83
2023/03/09 01:41:33;;;;;;;3.42;3.08;;;4.00;99.90;;;;;;5005191;28;20378;-84
2023/03/09 01:44:00;;;;;;;3.50;3.08;;;4.00;99.90;;;;;;4987914;28;20042;-83
2023/03/09 01:46:55;;;;;;;4.43;3.63;;;4.00;99.90;;;;;;4987732;28;20090;-83
2023/03/09 01:49:33;;;;;;;3.75;3.05;;;4.00;99.90;;;;;;4994014;28;20416;-83
2023/03/09 01:52:21;;;;;;;4.22;3.42;;;4.00;99.90;;;;;;5008495;28;20295;-84
2023/03/09 01:54:59;;;;;;;4.15;3.30;;;4.00;99.90;;;;;;5006005;28;20085;-83
2023/03/09 01:57:27;;;;;;;3.53;2.83;;;4.00;99.90;;;;;;4988048;28;20174;-83
2023/03/09 01:59:56;;;;;;;4.13;3.05;;;4.00;99.90;;;;;;5004123;28;20049;-82
2023/03/09 02:02:25;;;;;;;3.85;3.35;;;4.00;99.90;;;;;;5005312;28;20145;-83
2023/03/09 02:04:55;;;;;;;3.40;2.72;;;4.00;99.90;;;;;;5006809;28;20168;-83
2023/03/09 02:07:22;;;;;;;3.60;2.63;;;4.00;99.90;;;;;;4988488;28;20168;-83
2023/03/09 02:09:58;;;;;;;4.43;2.90;;;4.10;99.90;;;;;;4972115;28;20104;-83
2023/03/09 02:12:26;;;;;;;3.95;3.20;;;4.10;99.90;;;;;;4973347;28;20525;-83
2023/03/09 02:14:53;;;;;;;3.63;2.97;;;4.00;99.90;;;;;;5011199;28;20411;-83
2023/03/09 02:17:20;;;;;;;3.45;2.95;;;4.00;99.90;;;;;;4996263;28;20072;-83
2023/03/09 02:20:04;;;;;;;5.93;4.63;;;4.00;99.90;;;;;;5002463;28;20076;-83
2023/03/09 02:22:34;;;;;;;3.53;3.00;;;4.00;99.90;;;;;;5003744;28;20055;-83
2023/03/09 02:25:17;;;;;;;4.85;3.63;;;4.00;99.90;;;;;;4991435;28;20068;-83
2023/03/09 02:27:45;;;;;;;4.72;3.85;;;4.00;99.90;;;;;;4987989;28;20522;-84
2023/03/09 02:30:12;;;;;;;5.75;4.47;;;4.00;99.90;;;;;;4986865;28;20049;-83
2023/03/09 02:32:39;;;;;;;5.15;3.78;;;4.00;99.90;;;;;;4998546;28;20133;-83
2023/03/09 02:35:09;;;;;;;5.03;3.92;;;4.00;99.90;;;;;;4989856;28;20045;-82
2023/03/09 02:37:38;;;;;;;4.80;3.70;;;4.00;99.90;;;;;;4973454;28;20369;-84
2023/03/09 02:40:16;;;;;;;4.07;3.20;;;4.00;99.90;;;;;;4972341;28;20069;-83
2023/03/09 02:42:46;;;;;;;4.00;3.25;;;4.10;99.90;;;;;;4975675;28;20084;-83
2023/03/09 02:45:14;;;;;;;3.90;2.92;;;4.10;99.90;;;;;;5022207;28;20179;-82
2023/03/09 02:47:41;;;;;;;4.57;3.70;;;4.10;99.90;;;;;;4991989;28;20097;-82
2023/03/09 02:50:09;;;;;;;3.92;3.35;;;4.10;99.90;;;;;;5006202;28;20053;-82
2023/03/09 02:52:36;;;;;;;5.00;3.60;;;4.10;99.90;;;;;;5008248;28;20196;-83
2023/03/09 02:55:04;;;;;;;4.95;4.10;;;4.10;99.90;;;;;;5022015;28;20460;-83
2023/03/09 02:57:31;;;;;;;4.22;3.40;;;4.10;99.90;;;;;;4976207;28;20612;-83
2023/03/09 02:59:58;;;;;;;5.38;4.22;;;4.10;99.90;;;;;;4974733;28;20121;-82
2023/03/09 03:02:25;;;;;;;4.70;4.00;;;4.10;99.90;;;;;;5007383;28;20100;-84
2023/03/09 03:04:52;;;;;;;4.90;3.97;;;4.10;99.90;;;;;;4989311;28;20084;-82
2023/03/09 03:07:19;;;;;;;4.55;3.38;;;4.10;99.90;;;;;;5007155;28;20519;-83
2023/03/09 03:09:46;;;;;;;5.00;3.95;;;4.10;99.90;;;;;;5007199;28;20393;-82
2023/03/09 03:12:13;;;;;;;4.93;4.00;;;4.10;99.90;;;;;;4988118;28;20046;-82
2023/03/09 03:14:40;;;;;;;4.88;3.72;;;4.20;99.90;;;;;;5000470;28;20067;-82
2023/03/09 03:17:06;;;;;;;4.28;3.65;;;4.20;99.90;;;;;;5005515;28;20144;-82
2023/03/09 03:19:33;;;;;;;4.50;3.58;;;4.20;99.90;;;;;;5005830;28;20141;-83
2023/03/09 03:22:00;;;;;;;5.57;4.45;;;4.20;99.90;;;;;;4987417;28;20054;-83
2023/03/09 03:24:27;;;;;;;4.45;3.63;;;4.20;99.90;;;;;;5014927;28;20061;-83
2023/03/09 04:38:34;;;;;;;4.25;3.40;;;4.30;99.90;;;;;;4927933;29;20451;-84
2023/03/09 04:41:01;;;;;;;4.10;3.30;;;4.30;99.90;;;;;;4915339;29;20123;-84
2023/03/09 04:43:28;;;;;;;4.25;3.20;;;4.30;99.90;;;;;;4899773;29;20387;-84
2023/03/09 04:45:55;;;;;;;3.63;2.90;;;4.30;99.90;;;;;;4914243;29;20135;-83
2023/03/09 04:48:23;;;;;;;3.97;3.13;;;4.30;99.90;;;;;;4930008;29;20056;-84
2023/03/09 04:50:54;;;;;;;4.95;3.20;;;4.40;99.90;;;;;;4913679;29;20079;-84
2023/03/09 04:53:21;;;;;;;4.03;3.33;;;4.40;99.90;;;;;;4929324;29;20044;-83
2023/03/09 04:55:48;;;;;;;4.13;3.72;;;4.40;99.90;;;;;;4914624;29;20052;-83
2023/03/09 04:58:15;;;;;;;4.95;4.25;;;4.40;99.90;;;;;;4899392;29;20047;-83
2023/03/09 05:00:42;;;;;;;4.32;3.85;;;4.30;99.90;;;;;;4914856;29;20568;-83
2023/03/09 05:03:10;;;;;;;5.60;4.20;;;4.30;99.90;;;;;;4930784;29;20056;-82
2023/03/09 05:05:36;;;;;;;4.43;3.88;;;4.40;99.90;;;;;;4892459;29;20062;-84
2023/03/09 05:08:04;;;;;;;4.53;3.75;;;4.30;99.90;;;;;;4899179;29;20044;-83
2023/03/09 05:10:31;;;;;;;4.60;3.67;;;4.40;99.90;;;;;;4910459;29;20051;-83
2023/03/09 05:12:58;;;;;;;4.95;4.05;;;4.40;99.90;;;;;;4910608;29;20083;-83
2023/03/09 05:15:24;;;;;;;4.13;3.15;;;4.40;99.90;;;;;;4913784;29;20416;-83
2023/03/09 05:17:51;;;;;;;3.83;3.45;;;4.40;99.90;;;;;;4914713;29;20044;-84
2023/03/09 05:20:18;;;;;;;4.63;3.60;;;4.40;99.90;;;;;;4897393;29;20055;-84
2023/03/09 05:22:45;;;;;;;3.88;3.17;;;4.40;99.90;;;;;;4897349;29;20051;-82
2023/03/09 05:25:12;;;;;;;4.82;3.85;;;4.40;99.90;;;;;;4898139;29;20134;-83
2023/03/09 05:27:39;;;;;;;4.60;3.72;;;4.40;99.90;;;;;;4898728;29;20091;-82
2023/03/09 05:30:07;;;;;;;3.83;3.22;;;4.40;99.90;;;;;;4898453;29;20051;-83
2023/03/09 05:32:34;;;;;;;3.60;3.15;;;4.40;99.90;;;;;;4914147;29;20400;-83
2023/03/09 05:35:01;;;;;;;4.25;3.47;;;4.50;99.90;;;;;;4928546;29;20098;-83
2023/03/09 05:37:32;;;;;;;4.38;3.22;;;4.40;99.90;;;;;;4904810;29;20573;-82
2023/03/09 05:39:59;;;;;;;4.10;3.67;;;4.40;99.90;;;;;;4893937;29;20052;-83
2023/03/09 05:42:26;;;;;;;3.88;3.45;;;4.40;99.90;;;;;;4894845;29;20135;-82
2023/03/09 05:44:53;;;;;;;4.22;3.78;;;4.40;99.90;;;;;;4894059;29;20946;-82
2023/03/09 05:47:20;;;;;;;4.95;4.28;;;4.50;99.90;;;;;;4879046;29;20123;-83
2023/03/09 05:49:48;;;;;;;4.00;3.60;;;4.50;99.90;;;;;;4906162;29;20054;-83
2023/03/09 05:52:15;;;;;;;4.72;3.78;;;4.40;99.90;;;;;;4891667;29;20058;-82
2023/03/09 05:54:42;;;;;;;4.28;3.65;;;4.50;99.90;;;;;;4891797;29;20063;-82
2023/03/09 05:57:12;;;;;;;4.43;4.03;;;4.50;99.90;;;;;;4880871;29;20075;-85
2023/03/09 05:59:39;;;;;;;4.82;4.20;;;4.50;99.90;;;;;;4888920;29;20151;-83
2023/03/09 06:02:06;;;;;;;4.90;4.07;;;4.40;99.90;;;;;;4888195;29;20527;-83
2023/03/09 06:04:34;;;;;;;5.00;4.25;;;4.40;99.90;;;;;;4877760;29;20139;-84
2023/03/09 06:07:01;;;;;;;5.65;4.47;;;4.40;99.90;;;;;;4883571;29;20107;-82
2023/03/09 06:09:28;;;;;;;6.35;5.38;;;4.50;99.90;;;;;;4887977;29;20048;-84
2023/03/09 06:11:55;;;;;;;5.65;4.70;;;4.50;99.90;;;;;;4890596;29;20664;-84
2023/03/09 06:14:22;;;;;;;5.53;4.80;;;4.40;99.90;;;;;;4893029;29;20135;-84
2023/03/09 06:16:49;;;;;;;4.97;4.30;;;4.50;99.90;;;;;;4883822;29;20131;-83
2023/03/09 06:19:16;;;;;;;4.75;4.20;;;4.50;99.90;;;;;;4888555;29;20064;-83
2023/03/09 06:21:43;;;;;;;3.97;3.55;;;4.50;99.90;;;;;;4885250;29;20072;-82
2023/03/09 06:24:11;;;;;;;5.07;4.22;;;4.50;99.90;;;;;;4882125;29;20056;-83
2023/03/09 06:26:38;;;;;;;4.35;3.50;;;4.50;99.90;;;;;;4901549;29;20897;-82
2023/03/09 06:29:06;;;;;;;5.45;4.53;;;4.60;99.90;;;;;;4884751;29;20055;-83
2023/03/09 06:31:33;;;;;;;5.20;4.70;;;4.50;99.90;;;;;;4901185;29;20064;-83
2023/03/09 06:34:01;;;;;;;5.88;4.72;;;4.60;99.90;;;;;;4903035;29;20063;-83
2023/03/09 06:36:28;;;;;;;5.15;4.55;;;4.50;99.90;;;;;;4896557;29;20052;-83
2023/03/09 06:38:55;;;;;;;6.20;4.70;;;4.50;99.90;;;;;;4887728;29;20341;-82
2023/03/09 06:41:29;;;;;;;6.85;5.13;;;4.50;99.90;;;;;;4902942;29;20056;-83
2023/03/09 06:43:56;;;;;;;5.50;4.38;;;4.50;99.90;;;;;;4888117;29;20058;-82
2023/03/09 06:46:23;;;;;;;5.90;4.85;;;4.60;99.90;;;;;;4885749;29;20633;-83
2023/03/09 06:48:50;;;;;;;6.30;5.55;;;4.50;99.90;;;;;;4896026;29;20559;-82
2023/03/09 06:51:19;;;;;;;6.97;5.93;;;4.50;99.90;;;;;;4891633;29;20052;-83
2023/03/09 06:53:47;;;;;;;5.15;4.63;;;4.50;99.90;;;;;;4900596;29;20138;-83
2023/03/09 06:56:14;;;;;;;5.68;5.07;;;4.50;99.90;;;;;;4867854;29;20350;-85
2023/03/09 06:58:41;;;;;;;6.18;5.38;;;4.50;99.90;;;;;;4900884;29;20070;-84
2023/03/09 07:01:12;;;;;;;6.72;5.85;;;4.50;99.90;;;;;;4884924;29;20366;-85
2023/03/09 07:03:40;;;;;;;6.60;5.70;;;4.60;99.90;;;;;;4898128;29;20234;-84
2023/03/09 07:06:07;;;;;;;6.97;6.05;;;4.50;99.90;;;;;;4883755;29;20051;-84
2023/03/09 07:08:34;;;;;;;6.63;5.63;;;4.60;99.90;;;;;;4917735;29;20070;-83
2023/03/09 07:11:01;;;;;;;5.93;5.32;;;4.60;99.90;;;;;;4925552;29;20141;-84
2023/03/09 07:13:29;;;;;;;7.60;6.35;;;4.60;99.90;;;;;;4910867;29;20443;-83
2023/03/09 07:15:56;;;;;;;6.50;5.57;;;4.60;99.90;;;;;;4913297;29;20436;-84
2023/03/09 07:18:24;;;;;;;6.60;5.60;;;4.60;99.90;;;;;;4919435;29;20060;-83
2023/03/09 07:20:51;;;;;;;6.05;5.22;;;4.60;99.90;;;;;;4877258;29;20429;-84
2023/03/09 07:23:18;;;;;;;6.03;5.43;;;4.70;99.90;;;;;;4887539;29;20388;-84
2023/03/09 07:25:48;;;;;;;7.15;5.43;;;4.70;99.90;;;;;;4899815;29;20122;-85
2023/03/09 07:28:15;;;;;;;6.88;5.35;;;4.70;99.90;;;;;;4888675;29;20314;-85
2023/03/09 07:30:42;;;;;;;7.45;6.38;;;4.70;99.90;;;;;;4902508;29;20066;-86
2023/03/09 07:33:09;;;;;;;7.43;6.32;;;4.70;99.90;;;;;;4887117;29;20058;-85
2023/03/09 07:35:39;;;;;;;6.90;5.55;;;4.70;99.90;;;;;;4885062;29;20062;-84
2023/03/09 07:38:06;;;;;;;6.40;5.57;;;4.70;99.90;;;;;;4886357;29;20701;-85
2023/03/09 07:40:33;;;;;;;6.85;5.75;;;4.70;99.90;;;;;;4890894;29;20432;-85
2023/03/09 07:43:00;;;;;;;6.13;5.28;;;4.80;99.90;;;;;;4885824;29;20355;-88
2023/03/09 07:45:28;;;;;;;7.43;6.13;;;4.80;99.90;;;;;;4903705;29;20052;-75
2023/03/09 07:47:55;;;;;;;7.95;6.00;;;4.80;99.90;;;;;;4911863;29;20486;-74
2023/03/09 07:50:21;;;;;;;8.52;7.63;;;4.70;99.90;;;;;;4917481;29;20086;-75
2023/03/09 07:52:49;;;;;;;6.38;5.63;;;4.80;99.90;;;;;;4916140;29;20060;-74
2023/03/09 07:55:18;;;;;;;9.20;6.90;;;4.80;99.90;;;;;;4917401;29;20448;-77
2023/03/09 07:57:45;;;;;;;7.63;6.78;;;4.80;99.90;;;;;;4917906;29;20270;-77
2023/03/09 08:00:13;;;;;;;7.25;5.90;;;4.80;99.90;;;;;;4901674;29;20195;-77
2023/03/09 08:02:40;;;;;;;7.07;5.82;;;4.90;99.90;;;;;;4918916;29;20063;-76
2023/03/09 08:05:08;;;;;;;5.50;4.90;;;4.90;99.90;;;;;;4915970;29;20138;-77
2023/03/09 08:07:35;;;;;;;7.57;6.10;;;4.90;99.90;;;;;;4900664;29;20495;-77
2023/03/09 08:10:03;;;;;;;7.15;5.90;;;4.90;99.90;;;;;;4917267;29;20090;-76
2023/03/09 08:12:29;;;;;;;6.97;6.28;;;5.00;99.90;;;;;;4917710;29;20063;-76
2023/03/09 08:14:56;;;;;;;5.95;5.32;;;5.10;99.90;;;;;;4918223;29;20122;-75
2023/03/09 08:17:24;;;;;;;7.22;6.20;;;5.10;99.90;;;;;;4898345;29;20302;-76
2023/03/09 08:19:51;;;;;;;6.15;5.50;;;5.10;99.90;;;;;;4913903;29;20051;-76
2023/03/09 08:22:18;;;;;;;5.78;4.95;;;5.10;99.90;;;;;;4918629;29;20051;-76
2023/03/09 08:24:44;;;;;;;6.43;5.00;;;5.20;99.90;;;;;;4918845;29;20284;-76
2023/03/09 08:27:11;;;;;;;6.97;5.20;;;5.20;99.90;;;;;;4919070;29;20166;-75
2023/03/09 08:29:38;;;;;;;6.53;5.78;;;5.20;99.90;;;;;;4918473;29;20201;-75
2023/03/09 08:32:09;;;;;;;6.63;5.63;;;5.20;99.90;;;;;;4919566;29;20062;-75
2023/03/09 08:34:37;;;;;;;5.57;4.65;;;5.20;99.90;;;;;;4918231;29;20055;-76
2023/03/09 08:37:04;;;;;;;5.82;5.13;;;5.20;99.90;;;;;;4917966;29;20456;-75
2023/03/09 08:39:31;;;;;;;6.78;5.95;;;5.20;99.90;;;;;;4911630;29;20301;-76
2023/03/09 08:41:58;;;;;;;5.30;4.35;;;5.20;99.90;;;;;;4917302;29;20058;-75
2023/03/09 08:44:24;;;;;;;6.25;5.40;;;5.30;99.90;;;;;;4918945;29;20554;-75
2023/03/09 08:46:52;;;;;;;5.90;4.63;;;5.20;99.90;;;;;;4919545;29;20056;-75
2023/03/09 08:49:18;;;;;;;5.20;4.18;;;5.30;99.90;;;;;;4922398;29;20052;-76
2023/03/09 08:51:48;;;;;;;6.38;4.95;;;5.30;99.90;;;;;;4903463;29;20052;-75
2023/03/09 08:54:15;;;;;;;5.97;5.07;;;5.30;99.90;;;;;;4921765;29;20131;-75
2023/03/09 08:56:42;;;;;;;5.05;4.40;;;5.40;99.90;;;;;;4904903;29;20491;-75
2023/03/09 08:59:09;;;;;;;4.82;4.25;;;5.40;99.90;;;;;;4922117;29;20111;-76
2023/03/09 09:01:36;;;;;;;5.28;4.03;;;5.40;99.90;;;;;;4921529;29;20051;-76
2023/03/09 09:04:04;;;;;;;5.32;4.07;;;5.50;99.90;;;;;;4919949;29;20465;-75
2023/03/09 09:06:33;;;;;;;6.30;5.00;;;5.40;99.90;;;;;;4920869;29;20056;-75
2023/03/09 09:09:00;;;;;;;4.65;4.18;;;5.50;99.90;;;;;;4922329;29;20155;-76
2023/03/09 09:11:27;;;;;;;5.32;4.25;;;5.50;99.90;;;;;;4921959;29;20368;-75
2023/03/09 09:13:54;;;;;;;5.60;4.53;;;5.50;99.90;;;;;;4910797;29;20654;-75
2023/03/09 09:16:21;;;;;;;4.85;3.90;;;5.50;99.90;;;;;;4918530;29;20060;-73
2023/03/09 09:18:48;;;;;;;3.90;3.25;;;5.50;99.90;;;;;;4921860;29;20055;-85
2023/03/09 09:21:15;;;;;;;5.47;4.50;;;5.50;99.90;;;;;;4886657;29;20293;-77
2023/03/09 09:23:43;;;;;;;5.53;4.32;;;5.50;99.90;;;;;;4909956;29;20043;-77
2023/03/09 09:26:13;;;;;;;3.88;3.25;;;5.60;99.90;;;;;;4916808;29;20059;-78
2023/03/09 09:28:39;;;;;;;3.90;3.33;;;5.60;99.90;;;;;;4903341;29;20059;-77
2023/03/09 09:31:07;;;;;;;4.40;3.40;;;5.60;99.90;;;;;;4914861;29;20381;-78
2023/03/09 09:33:34;;;;;;;3.17;2.65;;;5.70;99.90;;;;;;4918539;29;20082;-77
2023/03/09 09:36:06;;;;;;;3.45;3.05;;;5.70;99.90;;;;;;4917384;29;20134;-77
2023/03/09 09:38:33;;;;;;;3.22;2.88;;;5.70;99.90;;;;;;4921098;29;20091;-77
2023/03/09 09:41:05;;;;;;;3.00;2.70;;;5.80;99.90;;;;;;4888687;29;20141;-78
2023/03/09 09:43:32;;;;;;;3.83;3.10;;;5.90;99.90;;;;;;4890563;29;20594;-78
2023/03/09 09:45:59;;;;;;;3.22;2.60;;;5.90;99.90;;;;;;4921038;29;20464;-81
2023/03/09 09:48:26;;;;;;;3.33;2.45;;;5.90;99.90;;;;;;4905275;29;20140;-82
2023/03/09 09:51:36;;;;;;;3.03;2.10;;;6.00;99.90;;;;;;4905537;29;20130;-82
2023/03/09 09:54:13;;;;;;;2.47;2.08;;;6.00;99.90;;;;;;4920971;29;20487;-75
2023/03/09 09:56:40;;;;;;;2.88;2.00;;;6.10;99.90;;;;;;4922301;29;20106;-75
2023/03/09 09:59:07;;;;;;;2.20;1.83;;;6.10;99.90;;;;;;4923161;29;20447;-75
2023/03/09 10:01:51;;;;;;;2.20;1.73;;;6.10;99.90;;;;;;4907543;29;20059;-74
2023/03/09 10:04:22;;;;;;;2.50;1.98;;;6.20;99.90;;;;;;4906495;29;20126;-75
2023/03/09 10:06:49;;;;;;;2.78;2.25;;;6.30;99.90;;;;;;4920867;29;20051;-75
2023/03/09 10:09:27;;;;;;;3.08;2.55;;;6.30;99.90;;;;;;4923130;29;20990;-75
2023/03/09 10:12:14;;;;;;;3.53;2.33;;;6.30;99.90;;;;;;4918656;29;20446;-74
2023/03/09 10:14:45;;;;;;;2.72;2.10;;;6.30;99.90;;;;;;4908724;29;20344;-75
2023/03/09 10:17:32;;;;;;;2.63;2.20;;;6.40;99.90;;;;;;4907011;29;20066;-75
2023/03/09 10:20:02;;;;;;;2.47;2.20;;;6.40;99.90;;;;;;4922577;29;20043;-74
2023/03/09 10:22:30;;;;;;;2.10;1.70;;;6.60;99.90;;;;;;4921427;29;20483;-74
2023/03/09 10:24:57;;;;;;;2.40;1.63;;;6.70;99.90;;;;;;4923228;29;20081;-75
2023/03/09 10:27:27;;;;;;;2.88;2.00;;;6.70;99.90;;;;;;4922108;29;20063;-75
2023/03/09 10:30:07;;;;;;;2.00;1.70;;;6.80;99.90;;;;;;4921626;29;20056;-75
2023/03/09 10:32:42;;;;;;;2.50;2.30;;;6.90;99.90;;;;;;4923297;29;20218;-75
2023/03/09 10:35:37;;;;;;;2.58;1.75;;;6.90;99.90;;;;;;4921884;29;20052;-75
2023/03/09 10:38:04;;;;;;;2.90;2.60;;;7.00;99.90;;;;;;4922016;29;20165;-75
2023/03/09 10:40:35;;;;;;;2.15;1.65;;;7.10;99.90;;;;;;4921424;29;20048;-75
2023/03/09 10:43:02;;;;;;;2.10;1.88;;;7.20;99.90;;;;;;4890301;29;20478;-75
2023/03/09 10:45:30;;;;;;;2.03;1.50;;;7.30;99.90;;;;;;4905598;29;20062;-75
2023/03/09 10:48:06;;;;;;;2.30;1.70;;;7.50;99.90;;;;;;4921495;29;20118;-75
2023/03/09 10:50:40;;;;;;;2.10;1.55;;;7.50;99.90;;;;;;4921922;29;20143;-74
2023/03/09 10:53:29;;;;;;;2.10;1.70;;;7.60;99.90;;;;;;4905183;29;20916;-75
2023/03/09 10:56:03;;;;;;;2.10;1.52;;;7.70;99.90;;;;;;4905701;29;20047;-74
2023/03/09 10:58:32;;;;;;;2.67;1.98;;;7.90;99.90;;;;;;4922756;29;20060;-75
2023/03/09 11:01:04;;;;;;;2.17;1.70;;;8.00;99.90;;;;;;4921493;29;20094;-74
2023/03/09 11:03:39;;;;;;;2.28;1.75;;;8.10;99.90;;;;;;4905404;29;20047;-75
2023/03/09 11:06:15;;;;;;;1.70;1.42;;;8.20;99.90;;;;;;4920017;29;20154;-74
2023/03/09 11:08:43;;;;;;;1.85;1.75;;;8.20;99.90;;;;;;4922462;29;20083;-74
2023/03/09 11:11:27;;;;;;;2.15;1.58;;;8.20;99.90;;;;;;4907699;29;20067;-74
2023/03/09 11:13:54;;;;;;;1.83;1.33;;;8.20;99.90;;;;;;4922629;29;20114;-74
2023/03/09 11:16:28;;;;;;;1.65;1.33;;;8.20;99.90;;;;;;4922322;29;20142;-75
2023/03/09 11:19:05;;;;;;;1.30;1.08;;;8.20;99.90;;;;;;4922643;29;20164;-74
2023/03/09 11:21:32;;;;;;;1.60;1.20;;;8.20;99.90;;;;;;4919901;29;20153;-74
2023/03/09 11:24:00;;;;;;;1.25;0.90;;;8.20;99.90;;;;;;4920888;29;20151;-75
2023/03/09 11:26:36;;;;;;;1.52;1.13;;;8.30;99.90;;;;;;4906414;29;20079;-74
2023/03/09 11:29:21;;;;;;;1.23;1.10;;;8.30;99.90;;;;;;4921324;29;20493;-75
2023/03/09 11:31:48;;;;;;;2.33;1.48;;;8.40;99.90;;;;;;4921974;29;20145;-74
2023/03/09 11:34:31;;;;;;;1.98;1.60;;;8.40;99.90;;;;;;4922036;29;20134;-75
2023/03/09 11:37:25;;;;;;;1.30;1.20;;;8.30;99.90;;;;;;4919742;29;20423;-74
2023/03/09 11:39:56;;;;;;;2.13;1.83;;;8.40;99.90;;;;;;4904724;29;20464;-75
2023/03/09 11:42:34;;;;;;;1.90;1.50;;;8.40;99.90;;;;;;4918265;29;20229;-76
2023/03/09 11:45:02;;;;;;;1.98;1.48;;;8.50;99.90;;;;;;4899753;29;20384;-74
2023/03/09 11:47:52;;;;;;;1.70;1.20;;;8.60;99.90;;;;;;4910685;29;20050;-75
2023/03/09 11:50:24;;;;;;;1.70;1.42;;;8.70;99.90;;;;;;4915300;29;20055;-74
2023/03/09 11:52:57;;;;;;;1.40;1.20;;;8.80;99.90;;;;;;4901628;29;20454;-75
2023/03/09 11:55:28;;;;;;;1.45;1.10;;;9.00;99.90;;;;;;4897871;29;20058;-77
2023/03/09 11:57:58;;;;;;;1.20;1.10;;;9.00;99.90;;;;;;4907841;29;20419;-74
2023/03/09 12:00:25;;;;;;;1.20;1.10;;;9.10;99.90;;;;;;4900805;29;20114;-75
2023/03/09 12:03:13;;;;;;;1.30;1.08;;;9.00;99.90;;;;;;4900035;29;20143;-75
2023/03/09 12:05:46;;;;;;;0.85;0.73;;;9.00;99.90;;;;;;4881723;29;20086;-75
2023/03/09 12:08:16;;;;;;;1.60;1.13;;;9.00;99.90;;;;;;4904970;29;20139;-74
2023/03/09 12:11:11;;;;;;;1.02;0.90;;;9.10;99.90;;;;;;4917378;29;20056;-74
2023/03/09 12:14:16;;;;;;;0.90;0.90;;;9.20;99.90;;;;;;4902499;29;20487;-75
2023/03/09 12:16:43;;;;;;;1.70;1.20;;;9.30;99.90;;;;;;4912169;29;20048;-75
2023/03/09 12:19:10;;;;;;;1.75;1.20;;;9.30;99.90;;;;;;4899713;29;20060;-75
2023/03/09 12:21:41;;;;;;;1.88;1.20;;;9.40;99.90;;;;;;4911327;29;20251;-75
2023/03/09 12:24:19;;;;;;;1.17;1.02;;;9.50;99.90;;;;;;4915325;29;20134;-75
2023/03/09 12:26:56;;;;;;;1.10;0.90;;;9.60;99.90;;;;;;4918709;29;20115;-75
2023/03/09 12:29:23;;;;;;;1.42;1.08;;;9.70;99.90;;;;;;4904685;29;20056;-76
2023/03/09 12:32:14;;;;;;;1.65;1.27;;;9.80;99.90;;;;;;4919082;29;20059;-88
2023/03/09 12:34:41;;;;;;;2.90;1.20;;;10.00;99.90;;;;;;4906858;29;20383;-80
2023/03/09 12:37:28;;;;;;;1.67;1.10;;;10.10;99.90;;;;;;4898134;29;20629;-88
2023/03/09 12:40:10;;;;;;;2.75;1.25;;;10.20;99.90;;;;;;4925179;29;20114;-87
2023/03/09 12:42:38;;;;;;;2.28;1.13;;;10.40;99.90;;;;;;4904857;29;20499;-85
2023/03/09 12:45:14;;;;;;;2.30;1.10;;;10.40;99.90;;;;;;4901035;29;20155;-88
2023/03/09 12:47:57;;;;;;;2.45;1.58;;;10.50;99.90;;;;;;4911411;29;20393;-90
2023/03/09 12:50:48;;;;;;;1.77;1.23;;;10.70;99.90;;;;;;4895005;29;20588;-91
2023/03/09 12:53:21;;;;;;;2.30;1.40;;;10.90;99.90;;;;;;4918583;29;20084;-92
2023/03/09 12:55:49;;;;;;;2.05;1.20;;;10.80;99.90;;;;;;4911004;29;20058;-89
2023/03/09 12:58:19;;;;;;;2.28;1.20;;;10.80;99.90;;;;;;4894584;29;20039;-91
2023/03/09 13:00:56;;;;;;;3.03;1.70;;;10.70;99.90;;;;;;4911815;29;20047;-91
2023/03/09 13:03:31;;;;;;;3.10;1.40;;;10.70;99.90;;;;;;4907583;29;20060;-89
2023/03/09 13:06:03;;;;;;;4.35;1.50;;;10.70;99.90;;;;;;4907339;29;20056;-89
2023/03/09 13:08:38;;;;;;;2.50;1.47;;;10.70;99.90;;;;;;4909469;29;20135;-89
2023/03/09 13:11:23;;;;;;;3.13;1.60;;;10.70;99.90;;;;;;4892590;29;20539;-89
2023/03/09 13:14:18;;;;;;;2.97;1.45;;;10.80;99.90;;;;;;4924059;29;20051;-88
2023/03/09 13:16:48;;;;;;;3.40;1.40;;;10.90;99.90;;;;;;4908570;29;20498;-89
2023/03/09 13:19:23;;;;;;;2.50;1.98;;;11.00;99.90;;;;;;4924273;29;20407;-88
2023/03/09 13:21:57;;;;;;;2.65;1.70;;;11.20;99.90;;;;;;4923548;29;20055;-88
2023/03/09 13:24:32;;;;;;;4.25;1.50;;;11.40;99.90;;;;;;4923976;29;20051;-90
2023/03/09 13:27:12;;;;;;;5.47;2.10;;;11.60;99.90;;;;;;4890165;29;20052;-89
2023/03/09 13:29:57;;;;;;;5.30;2.05;;;11.60;99.90;;;;;;4916362;29;20083;-89
2023/03/09 13:32:30;;;;;;;6.10;2.03;;;11.60;99.90;;;;;;4917645;29;20063;-91
2023/03/09 13:35:02;;;;;;;4.88;1.70;;;11.60;99.90;;;;;;4898499;29;20118;-91
2023/03/09 13:37:32;;;;;;;4.78;1.70;;;11.50;99.90;;;;;;4892938;29;20087;-92
2023/03/09 13:40:05;;;;;;;5.13;1.90;;;11.40;99.90;;;;;;4892811;29;20453;-91
2023/03/09 13:42:33;;;;;;;;;;;11.40;99.90;;;;;;4895495;29;20071;-91
2023/03/09 13:45:00;;;;;;;5.25;1.50;;;11.40;99.90;;;;;;4906305;29;20032;-90
2023/03/09 13:47:28;;;;;;;2.25;1.30;;;11.40;99.90;;;;;;4910271;29;20111;-92
2023/03/09 13:49:55;;;;;;;2.85;1.35;;;11.40;99.90;;;;;;4895089;29;20075;-92
2023/03/09 13:52:22;;;;;;;3.58;2.13;;;11.60;99.90;;;;;;4895305;29;20673;-93
2023/03/09 13:54:59;;;;;;;1.52;0.90;;;11.70;99.90;;;;;;4895167;29;20126;-94
2023/03/09 13:57:30;;;;;;;1.52;1.00;;;11.80;99.90;;;;;;4894227;29;20515;-92
2023/03/09 14:00:01;;;;;;;2.90;1.13;;;11.90;99.90;;;;;;4904911;29;20526;-93
2023/03/09 14:02:32;;;;;;;4.00;1.48;;;12.00;99.90;;;;;;4910105;29;20404;-94
2023/03/09 14:05:05;;;;;;;3.40;1.70;;;11.90;99.90;;;;;;4894117;29;20547;-93
2023/03/09 14:07:57;;;;;;;2.73;1.17;;;11.90;99.90;;;;;;4892388;29;20054;-86
2023/03/09 14:10:29;;;;;;;2.70;1.08;;;11.90;99.90;;;;;;4908427;29;20055;-93
2023/03/09 14:13:06;;;;;;;2.23;1.40;;;11.90;99.90;;;;;;4901074;29;20079;-94
2023/03/09 14:15:33;;;;;;;3.58;1.48;;;11.80;99.90;;;;;;4896517;29;20476;-93
2023/03/09 14:18:00;;;;;;;4.50;1.45;;;11.70;99.90;;;;;;4896713;29;20064;-93
2023/03/09 14:20:38;;;;;;;3.35;1.50;;;11.70;99.90;;;;;;4896066;29;20154;-94
2023/03/09 14:23:30;;;;;;;2.67;1.30;;;11.70;99.90;;;;;;4896484;29;20555;-93